Toyama Airport, Japan

11:07 PM JST on April 26, 2015 (GMT +0900)
JR9MAR-WX | | Change Station
CLOSE
Current Station
Personal Weather Station
Location: TONAMI, TOYAMA
Elevation: 325 ft
Nearby Weather Stations

Elev 325 ft 36.57 °N, 136.98 °E | Updated 7 minutes ago

Clear
Clear
63.7 °F
Feels Like 63.7 °F
N
1.2
Wind Variable Wind from South
Gusts 3.8 mph

Today
High -- | Low -- °F
--% Chance of Precip.
Yesterday
High -- | Low -- °F
Precip. -- in
5:04 AM 6:34 PM
First Quarter, 56% visible
Pressure 30.04 in
Visibility 6.2 miles
Clouds
Dew Point 37 °F
Humidity 37%
Rainfall in
Snow Depth Not available.
UV Not available.
Pollen Not available.
Air Quality Not available.
Flu Activity Not available.
METAR RJNK 261400Z 15004KT 9999 NSC 14/06 Q1017

More Conditions Fewer Conditions

Pressure 30.04 in
Visibility 6.2 miles
Clouds
Dew Point 37 °F
Humidity 37%
Rainfall in
Snow Depth Not available.
UV Not available.
Pollen Not available.
Air Quality Not available.
Flu Activity Not available.
METAR RJNK 261400Z 15004KT 9999 NSC 14/06 Q1017

More Conditions Fewer Conditions

10-Day Weather Forecast

Almanac

Astronomy

Apr. 26, 2015 Rise Set
Actual Time
Civil Twilight
Nautical Twilight
Astronomical Twilight
Moon
Length of Visible Light
Length of Day
Tomorrow will be .
, % of the Moon is Illuminated

Today's Extremes

Country Highs Country Lows

Community

WunderPhotos

Upload Photos

1,817,007 photos uploaded!

WunderBlogs® & News

Nearby

Air Quality

  Air Quality AQ Index Pollutant
Not available.

Snow Depth

Station Depth Elevation

Earthquake Activity

City Distance Mag. Time & Date
Minimum magnitude displayed is 2.5.

Coastal Water Temperatures

Place Temperature

Stations

Nearby Weather Stations

Station Location Temp. Windchill Dew Point Humidity Wind Precip. Elev Updated Type